sensor_id;sensor_type;location;lat;lon;timestamp;P1;durP1;ratioP1;P2;durP2;ratioP2
23578;SDS011;11967;50.852;4.400;2023-03-19T00:02:22;5.03;;;2.30;;
23578;SDS011;11967;50.852;4.400;2023-03-19T00:04:48;4.28;;;2.28;;
23578;SDS011;11967;50.852;4.400;2023-03-19T00:07:13;4.32;;;2.50;;
23578;SDS011;11967;50.852;4.400;2023-03-19T00:09:41;5.03;;;2.53;;
23578;SDS011;11967;50.852;4.400;2023-03-19T00:12:09;4.95;;;2.38;;
23578;SDS011;11967;50.852;4.400;2023-03-19T00:14:37;3.97;;;2.22;;
23578;SDS011;11967;50.852;4.400;2023-03-19T00:17:03;6.05;;;2.70;;
23578;SDS011;11967;50.852;4.400;2023-03-19T00:19:29;4.63;;;2.40;;
23578;SDS011;11967;50.852;4.400;2023-03-19T00:21:54;5.43;;;2.53;;
23578;SDS011;11967;50.852;4.400;2023-03-19T00:24:20;4.88;;;2.60;;
23578;SDS011;11967;50.852;4.400;2023-03-19T00:26:46;5.82;;;2.50;;
23578;SDS011;11967;50.852;4.400;2023-03-19T00:29:12;5.32;;;2.40;;
23578;SDS011;11967;50.852;4.400;2023-03-19T00:31:39;4.82;;;2.53;;
23578;SDS011;11967;50.852;4.400;2023-03-19T00:34:05;4.93;;;2.80;;
23578;SDS011;11967;50.852;4.400;2023-03-19T00:36:32;6.20;;;2.80;;
23578;SDS011;11967;50.852;4.400;2023-03-19T00:38:58;6.72;;;2.78;;
23578;SDS011;11967;50.852;4.400;2023-03-19T00:41:23;3.67;;;2.50;;
23578;SDS011;11967;50.852;4.400;2023-03-19T00:43:53;5.10;;;2.85;;
23578;SDS011;11967;50.852;4.400;2023-03-19T00:46:19;3.50;;;2.50;;
23578;SDS011;11967;50.852;4.400;2023-03-19T00:48:45;4.32;;;2.97;;
23578;SDS011;11967;50.852;4.400;2023-03-19T00:51:11;6.28;;;2.90;;
23578;SDS011;11967;50.852;4.400;2023-03-19T00:53:38;5.90;;;3.15;;
23578;SDS011;11967;50.852;4.400;2023-03-19T00:56:06;4.53;;;2.90;;
23578;SDS011;11967;50.852;4.400;2023-03-19T00:58:33;7.40;;;3.20;;
23578;SDS011;11967;50.852;4.400;2023-03-19T01:00:59;3.90;;;3.17;;
23578;SDS011;11967;50.852;4.400;2023-03-19T01:03:26;4.35;;;3.25;;
23578;SDS011;11967;50.852;4.400;2023-03-19T01:05:51;5.45;;;3.47;;
23578;SDS011;11967;50.852;4.400;2023-03-19T01:08:17;5.45;;;3.30;;
23578;SDS011;11967;50.852;4.400;2023-03-19T01:10:43;6.07;;;3.60;;
23578;SDS011;11967;50.852;4.400;2023-03-19T01:13:10;4.28;;;2.90;;
23578;SDS011;11967;50.852;4.400;2023-03-19T01:15:40;5.68;;;3.05;;
23578;SDS011;11967;50.852;4.400;2023-03-19T01:18:07;5.00;;;3.20;;
23578;SDS011;11967;50.852;4.400;2023-03-19T01:20:35;5.85;;;3.10;;
23578;SDS011;11967;50.852;4.400;2023-03-19T01:23:02;5.30;;;2.97;;
23578;SDS011;11967;50.852;4.400;2023-03-19T01:25:28;5.05;;;3.38;;
23578;SDS011;11967;50.852;4.400;2023-03-19T01:27:54;4.45;;;2.95;;
23578;SDS011;11967;50.852;4.400;2023-03-19T01:30:20;5.80;;;3.45;;
23578;SDS011;11967;50.852;4.400;2023-03-19T01:32:47;6.05;;;3.30;;
23578;SDS011;11967;50.852;4.400;2023-03-19T01:35:12;6.20;;;3.20;;
23578;SDS011;11967;50.852;4.400;2023-03-19T01:37:38;4.72;;;2.97;;
23578;SDS011;11967;50.852;4.400;2023-03-19T01:40:04;7.45;;;3.38;;
23578;SDS011;11967;50.852;4.400;2023-03-19T01:42:31;5.18;;;3.30;;
23578;SDS011;11967;50.852;4.400;2023-03-19T01:44:57;7.43;;;3.83;;
23578;SDS011;11967;50.852;4.400;2023-03-19T01:49:57;5.55;;;3.70;;
23578;SDS011;11967;50.852;4.400;2023-03-19T01:52:24;7.10;;;3.88;;
23578;SDS011;11967;50.852;4.400;2023-03-19T01:54:53;6.05;;;3.70;;
23578;SDS011;11967;50.852;4.400;2023-03-19T01:57:21;6.20;;;4.20;;
23578;SDS011;11967;50.852;4.400;2023-03-19T01:59:49;7.60;;;3.90;;
23578;SDS011;11967;50.852;4.400;2023-03-19T02:02:30;7.50;;;4.60;;
23578;SDS011;11967;50.852;4.400;2023-03-19T02:05:06;8.73;;;4.65;;
23578;SDS011;11967;50.852;4.400;2023-03-19T02:07:36;6.68;;;4.55;;
23578;SDS011;11967;50.852;4.400;2023-03-19T02:10:05;8.98;;;5.22;;
23578;SDS011;11967;50.852;4.400;2023-03-19T02:12:33;7.35;;;4.43;;
23578;SDS011;11967;50.852;4.400;2023-03-19T02:14:59;9.70;;;5.13;;
23578;SDS011;11967;50.852;4.400;2023-03-19T02:17:29;8.05;;;4.78;;
23578;SDS011;11967;50.852;4.400;2023-03-19T02:20:19;7.70;;;4.78;;
23578;SDS011;11967;50.852;4.400;2023-03-19T02:22:54;10.02;;;5.25;;
23578;SDS011;11967;50.852;4.400;2023-03-19T02:28:08;8.73;;;6.20;;
23578;SDS011;11967;50.852;4.400;2023-03-19T02:30:35;8.07;;;5.78;;
23578;SDS011;11967;50.852;4.400;2023-03-19T02:33:01;9.13;;;6.47;;
23578;SDS011;11967;50.852;4.400;2023-03-19T02:35:27;9.43;;;6.05;;
23578;SDS011;11967;50.852;4.400;2023-03-19T02:37:56;10.55;;;6.70;;
23578;SDS011;11967;50.852;4.400;2023-03-19T02:42:54;7.40;;;6.32;;
23578;SDS011;11967;50.852;4.400;2023-03-19T02:45:21;9.38;;;6.90;;
23578;SDS011;11967;50.852;4.400;2023-03-19T02:47:51;7.53;;;6.60;;
23578;SDS011;11967;50.852;4.400;2023-03-19T02:50:17;9.18;;;7.05;;
23578;SDS011;11967;50.852;4.400;2023-03-19T02:52:43;9.10;;;7.07;;
23578;SDS011;11967;50.852;4.400;2023-03-19T02:55:08;11.57;;;7.30;;
23578;SDS011;11967;50.852;4.400;2023-03-19T02:57:34;10.75;;;7.32;;
23578;SDS011;11967;50.852;4.400;2023-03-19T03:00:00;10.07;;;7.10;;
23578;SDS011;11967;50.852;4.400;2023-03-19T03:02:25;12.23;;;7.30;;
23578;SDS011;11967;50.852;4.400;2023-03-19T03:04:51;8.75;;;7.47;;
23578;SDS011;11967;50.852;4.400;2023-03-19T03:07:19;10.73;;;7.53;;
23578;SDS011;11967;50.852;4.400;2023-03-19T03:09:46;12.65;;;7.75;;
23578;SDS011;11967;50.852;4.400;2023-03-19T03:12:12;11.93;;;8.23;;
23578;SDS011;11967;50.852;4.400;2023-03-19T03:14:37;11.73;;;8.85;;
23578;SDS011;11967;50.852;4.400;2023-03-19T03:17:04;12.52;;;9.00;;
23578;SDS011;11967;50.852;4.400;2023-03-19T03:19:30;14.13;;;8.75;;
23578;SDS011;11967;50.852;4.400;2023-03-19T03:21:56;12.50;;;9.60;;
23578;SDS011;11967;50.852;4.400;2023-03-19T03:24:22;14.00;;;9.15;;
23578;SDS011;11967;50.852;4.400;2023-03-19T03:26:48;12.90;;;9.95;;
23578;SDS011;11967;50.852;4.400;2023-03-19T03:29:13;14.63;;;9.95;;
23578;SDS011;11967;50.852;4.400;2023-03-19T03:31:39;12.63;;;9.32;;
23578;SDS011;11967;50.852;4.400;2023-03-19T03:34:05;12.45;;;9.10;;
23578;SDS011;11967;50.852;4.400;2023-03-19T03:36:31;11.63;;;9.15;;
23578;SDS011;11967;50.852;4.400;2023-03-19T03:38:57;10.25;;;8.38;;
23578;SDS011;11967;50.852;4.400;2023-03-19T03:41:23;14.20;;;9.18;;
23578;SDS011;11967;50.852;4.400;2023-03-19T03:43:49;14.45;;;9.25;;
23578;SDS011;11967;50.852;4.400;2023-03-19T03:46:15;11.80;;;9.25;;
23578;SDS011;11967;50.852;4.400;2023-03-19T03:48:41;13.77;;;10.07;;
23578;SDS011;11967;50.852;4.400;2023-03-19T03:51:07;14.82;;;9.70;;
23578;SDS011;11967;50.852;4.400;2023-03-19T03:53:33;15.38;;;10.30;;
23578;SDS011;11967;50.852;4.400;2023-03-19T03:55:59;16.80;;;10.50;;
23578;SDS011;11967;50.852;4.400;2023-03-19T03:58:24;14.68;;;10.50;;
23578;SDS011;11967;50.852;4.400;2023-03-19T04:00:50;13.40;;;10.40;;
23578;SDS011;11967;50.852;4.400;2023-03-19T04:03:16;17.60;;;11.70;;
23578;SDS011;11967;50.852;4.400;2023-03-19T04:05:42;16.30;;;11.75;;
23578;SDS011;11967;50.852;4.400;2023-03-19T04:08:08;18.17;;;12.52;;
23578;SDS011;11967;50.852;4.400;2023-03-19T04:10:34;21.55;;;13.23;;
23578;SDS011;11967;50.852;4.400;2023-03-19T04:13:03;17.58;;;12.13;;
23578;SDS011;11967;50.852;4.400;2023-03-19T04:15:28;14.73;;;10.80;;
23578;SDS011;11967;50.852;4.400;2023-03-19T04:17:54;14.48;;;10.05;;
23578;SDS011;11967;50.852;4.400;2023-03-19T04:20:20;15.13;;;8.93;;
23578;SDS011;11967;50.852;4.400;2023-03-19T04:22:47;12.43;;;7.95;;
23578;SDS011;11967;50.852;4.400;2023-03-19T04:25:13;12.02;;;8.15;;
23578;SDS011;11967;50.852;4.400;2023-03-19T04:27:39;11.43;;;8.10;;
23578;SDS011;11967;50.852;4.400;2023-03-19T04:30:05;12.63;;;8.55;;
23578;SDS011;11967;50.852;4.400;2023-03-19T04:32:31;12.90;;;8.25;;
23578;SDS011;11967;50.852;4.400;2023-03-19T04:34:57;10.75;;;8.20;;
23578;SDS011;11967;50.852;4.400;2023-03-19T04:37:24;11.45;;;8.43;;
23578;SDS011;11967;50.852;4.400;2023-03-19T04:39:49;12.63;;;8.60;;
23578;SDS011;11967;50.852;4.400;2023-03-19T04:42:15;11.77;;;8.02;;
23578;SDS011;11967;50.852;4.400;2023-03-19T04:44:41;11.02;;;7.88;;
23578;SDS011;11967;50.852;4.400;2023-03-19T04:47:06;13.68;;;8.10;;
23578;SDS011;11967;50.852;4.400;2023-03-19T04:49:32;11.75;;;9.15;;
23578;SDS011;11967;50.852;4.400;2023-03-19T04:51:58;11.77;;;9.60;;
23578;SDS011;11967;50.852;4.400;2023-03-19T04:54:24;13.68;;;8.85;;
23578;SDS011;11967;50.852;4.400;2023-03-19T04:56:50;15.77;;;9.70;;
23578;SDS011;11967;50.852;4.400;2023-03-19T04:59:17;12.35;;;9.52;;
23578;SDS011;11967;50.852;4.400;2023-03-19T05:01:42;14.15;;;9.02;;
23578;SDS011;11967;50.852;4.400;2023-03-19T05:04:08;13.95;;;9.05;;
23578;SDS011;11967;50.852;4.400;2023-03-19T05:06:36;15.38;;;8.82;;
23578;SDS011;11967;50.852;4.400;2023-03-19T05:09:02;14.45;;;8.65;;
23578;SDS011;11967;50.852;4.400;2023-03-19T05:11:30;15.52;;;9.25;;
23578;SDS011;11967;50.852;4.400;2023-03-19T05:13:56;15.73;;;8.75;;
23578;SDS011;11967;50.852;4.400;2023-03-19T05:16:21;13.90;;;8.50;;
23578;SDS011;11967;50.852;4.400;2023-03-19T05:18:47;15.98;;;9.50;;
23578;SDS011;11967;50.852;4.400;2023-03-19T05:21:13;12.48;;;8.93;;
23578;SDS011;11967;50.852;4.400;2023-03-19T05:23:40;10.23;;;7.75;;
23578;SDS011;11967;50.852;4.400;2023-03-19T05:26:06;14.27;;;8.65;;
23578;SDS011;11967;50.852;4.400;2023-03-19T05:28:33;14.45;;;7.82;;
23578;SDS011;11967;50.852;4.400;2023-03-19T05:30:59;11.82;;;7.55;;
23578;SDS011;11967;50.852;4.400;2023-03-19T05:33:25;11.77;;;7.60;;
23578;SDS011;11967;50.852;4.400;2023-03-19T05:35:51;12.90;;;7.72;;
23578;SDS011;11967;50.852;4.400;2023-03-19T05:38:17;12.40;;;6.70;;
23578;SDS011;11967;50.852;4.400;2023-03-19T05:40:44;12.35;;;6.05;;
23578;SDS011;11967;50.852;4.400;2023-03-19T05:43:10;10.88;;;6.05;;
23578;SDS011;11967;50.852;4.400;2023-03-19T05:45:36;13.32;;;6.00;;
23578;SDS011;11967;50.852;4.400;2023-03-19T05:48:02;12.70;;;6.20;;
23578;SDS011;11967;50.852;4.400;2023-03-19T05:50:29;11.85;;;6.28;;
23578;SDS011;11967;50.852;4.400;2023-03-19T05:52:55;12.38;;;6.45;;
23578;SDS011;11967;50.852;4.400;2023-03-19T05:55:21;13.75;;;5.55;;
23578;SDS011;11967;50.852;4.400;2023-03-19T05:57:47;12.48;;;5.75;;
23578;SDS011;11967;50.852;4.400;2023-03-19T06:00:13;11.25;;;5.55;;
23578;SDS011;11967;50.852;4.400;2023-03-19T06:02:40;10.75;;;5.90;;
23578;SDS011;11967;50.852;4.400;2023-03-19T06:05:07;9.20;;;4.95;;
23578;SDS011;11967;50.852;4.400;2023-03-19T06:07:33;10.55;;;5.22;;
23578;SDS011;11967;50.852;4.400;2023-03-19T06:09:59;8.52;;;4.55;;
23578;SDS011;11967;50.852;4.400;2023-03-19T06:12:25;13.68;;;4.88;;
23578;SDS011;11967;50.852;4.400;2023-03-19T06:14:51;9.35;;;3.88;;
23578;SDS011;11967;50.852;4.400;2023-03-19T06:17:16;9.57;;;4.10;;
23578;SDS011;11967;50.852;4.400;2023-03-19T06:19:42;9.00;;;4.05;;
23578;SDS011;11967;50.852;4.400;2023-03-19T06:22:08;8.32;;;3.63;;
23578;SDS011;11967;50.852;4.400;2023-03-19T06:24:34;7.22;;;4.10;;
23578;SDS011;11967;50.852;4.400;2023-03-19T06:26:59;10.77;;;4.70;;
23578;SDS011;11967;50.852;4.400;2023-03-19T06:29:25;8.35;;;4.82;;
23578;SDS011;11967;50.852;4.400;2023-03-19T06:31:51;10.52;;;5.28;;
23578;SDS011;11967;50.852;4.400;2023-03-19T06:34:17;11.10;;;5.40;;
23578;SDS011;11967;50.852;4.400;2023-03-19T06:36:43;11.18;;;4.70;;
23578;SDS011;11967;50.852;4.400;2023-03-19T06:39:09;10.95;;;4.70;;
23578;SDS011;11967;50.852;4.400;2023-03-19T06:41:35;13.57;;;4.93;;
23578;SDS011;11967;50.852;4.400;2023-03-19T06:44:01;11.57;;;4.78;;
23578;SDS011;11967;50.852;4.400;2023-03-19T06:46:27;10.05;;;5.05;;
23578;SDS011;11967;50.852;4.400;2023-03-19T06:48:53;14.27;;;5.05;;
23578;SDS011;11967;50.852;4.400;2023-03-19T06:51:19;11.90;;;5.22;;
23578;SDS011;11967;50.852;4.400;2023-03-19T06:53:44;11.80;;;4.43;;
23578;SDS011;11967;50.852;4.400;2023-03-19T06:56:10;12.60;;;4.88;;
23578;SDS011;11967;50.852;4.400;2023-03-19T06:58:36;15.40;;;4.50;;
23578;SDS011;11967;50.852;4.400;2023-03-19T07:01:02;16.23;;;5.38;;
23578;SDS011;11967;50.852;4.400;2023-03-19T07:03:27;9.05;;;4.30;;
23578;SDS011;11967;50.852;4.400;2023-03-19T07:05:53;11.95;;;4.50;;
23578;SDS011;11967;50.852;4.400;2023-03-19T07:08:19;13.80;;;4.53;;
23578;SDS011;11967;50.852;4.400;2023-03-19T07:10:44;9.90;;;4.63;;
23578;SDS011;11967;50.852;4.400;2023-03-19T07:13:10;10.45;;;4.75;;
23578;SDS011;11967;50.852;4.400;2023-03-19T07:15:36;10.90;;;4.47;;
23578;SDS011;11967;50.852;4.400;2023-03-19T07:18:01;14.18;;;4.68;;
23578;SDS011;11967;50.852;4.400;2023-03-19T07:20:28;13.45;;;4.18;;
23578;SDS011;11967;50.852;4.400;2023-03-19T07:22:53;12.55;;;4.60;;
23578;SDS011;11967;50.852;4.400;2023-03-19T07:25:19;11.82;;;5.15;;
23578;SDS011;11967;50.852;4.400;2023-03-19T07:27:45;15.00;;;5.03;;
23578;SDS011;11967;50.852;4.400;2023-03-19T07:30:11;14.95;;;5.30;;
23578;SDS011;11967;50.852;4.400;2023-03-19T07:32:38;19.75;;;5.90;;
23578;SDS011;11967;50.852;4.400;2023-03-19T07:35:04;11.27;;;5.35;;
23578;SDS011;11967;50.852;4.400;2023-03-19T07:37:31;15.88;;;5.80;;
23578;SDS011;11967;50.852;4.400;2023-03-19T07:39:57;18.25;;;5.50;;
23578;SDS011;11967;50.852;4.400;2023-03-19T07:42:22;16.80;;;5.75;;
23578;SDS011;11967;50.852;4.400;2023-03-19T07:44:48;13.23;;;6.07;;
23578;SDS011;11967;50.852;4.400;2023-03-19T07:47:14;13.90;;;5.97;;
23578;SDS011;11967;50.852;4.400;2023-03-19T07:49:41;16.25;;;5.90;;
23578;SDS011;11967;50.852;4.400;2023-03-19T07:52:07;19.08;;;6.40;;
23578;SDS011;11967;50.852;4.400;2023-03-19T07:54:33;13.45;;;5.75;;
23578;SDS011;11967;50.852;4.400;2023-03-19T07:57:02;16.48;;;5.95;;
23578;SDS011;11967;50.852;4.400;2023-03-19T07:59:28;15.73;;;5.90;;
23578;SDS011;11967;50.852;4.400;2023-03-19T08:01:53;13.32;;;5.75;;
23578;SDS011;11967;50.852;4.400;2023-03-19T08:04:19;28.23;;;14.98;;
23578;SDS011;11967;50.852;4.400;2023-03-19T08:06:45;21.52;;;7.40;;
23578;SDS011;11967;50.852;4.400;2023-03-19T08:09:10;17.35;;;5.53;;
23578;SDS011;11967;50.852;4.400;2023-03-19T08:11:37;16.98;;;5.90;;
23578;SDS011;11967;50.852;4.400;2023-03-19T08:14:02;15.00;;;5.80;;
23578;SDS011;11967;50.852;4.400;2023-03-19T08:16:28;15.63;;;5.18;;
23578;SDS011;11967;50.852;4.400;2023-03-19T08:18:54;16.27;;;5.70;;
23578;SDS011;11967;50.852;4.400;2023-03-19T08:21:19;16.20;;;5.07;;
23578;SDS011;11967;50.852;4.400;2023-03-19T08:23:46;18.50;;;5.32;;
23578;SDS011;11967;50.852;4.400;2023-03-19T08:26:13;16.35;;;5.43;;
23578;SDS011;11967;50.852;4.400;2023-03-19T08:28:38;18.45;;;6.03;;
23578;SDS011;11967;50.852;4.400;2023-03-19T08:31:05;14.85;;;4.82;;
23578;SDS011;11967;50.852;4.400;2023-03-19T08:33:34;11.98;;;3.80;;
23578;SDS011;11967;50.852;4.400;2023-03-19T08:36:07;10.05;;;3.20;;
23578;SDS011;11967;50.852;4.400;2023-03-19T08:38:37;10.43;;;2.97;;
23578;SDS011;11967;50.852;4.400;2023-03-19T08:41:05;13.93;;;4.15;;
23578;SDS011;11967;50.852;4.400;2023-03-19T08:43:31;14.63;;;4.72;;
23578;SDS011;11967;50.852;4.400;2023-03-19T08:45:57;24.88;;;8.32;;
23578;SDS011;11967;50.852;4.400;2023-03-19T08:48:24;19.20;;;6.00;;
23578;SDS011;11967;50.852;4.400;2023-03-19T08:50:54;16.35;;;4.30;;
23578;SDS011;11967;50.852;4.400;2023-03-19T08:53:22;17.48;;;4.03;;
23578;SDS011;11967;50.852;4.400;2023-03-19T08:55:58;12.02;;;4.15;;
23578;SDS011;11967;50.852;4.400;2023-03-19T08:58:25;12.50;;;4.57;;
23578;SDS011;11967;50.852;4.400;2023-03-19T09:00:58;15.40;;;4.03;;
23578;SDS011;11967;50.852;4.400;2023-03-19T09:03:27;14.23;;;3.85;;
23578;SDS011;11967;50.852;4.400;2023-03-19T09:05:53;12.23;;;4.38;;
23578;SDS011;11967;50.852;4.400;2023-03-19T09:08:26;17.92;;;4.55;;
23578;SDS011;11967;50.852;4.400;2023-03-19T09:10:52;17.20;;;4.75;;
23578;SDS011;11967;50.852;4.400;2023-03-19T09:13:19;16.33;;;5.07;;
23578;SDS011;11967;50.852;4.400;2023-03-19T09:15:44;13.02;;;4.30;;
23578;SDS011;11967;50.852;4.400;2023-03-19T09:18:10;13.02;;;3.97;;
23578;SDS011;11967;50.852;4.400;2023-03-19T09:20:35;20.73;;;4.60;;
23578;SDS011;11967;50.852;4.400;2023-03-19T09:23:01;16.98;;;4.35;;
23578;SDS011;11967;50.852;4.400;2023-03-19T09:25:27;18.05;;;4.82;;
23578;SDS011;11967;50.852;4.400;2023-03-19T09:27:53;12.05;;;3.97;;
23578;SDS011;11967;50.852;4.400;2023-03-19T09:30:18;18.77;;;5.40;;
23578;SDS011;11967;50.852;4.400;2023-03-19T09:32:44;15.85;;;4.47;;
23578;SDS011;11967;50.852;4.400;2023-03-19T09:35:10;15.10;;;4.85;;
23578;SDS011;11967;50.852;4.400;2023-03-19T09:37:36;15.23;;;4.47;;
23578;SDS011;11967;50.852;4.400;2023-03-19T09:40:01;13.55;;;4.35;;
23578;SDS011;11967;50.852;4.400;2023-03-19T09:45:13;15.80;;;4.35;;
23578;SDS011;11967;50.852;4.400;2023-03-19T09:47:42;14.02;;;4.43;;
23578;SDS011;11967;50.852;4.400;2023-03-19T09:50:13;18.00;;;4.65;;
23578;SDS011;11967;50.852;4.400;2023-03-19T09:52:43;15.70;;;5.10;;
23578;SDS011;11967;50.852;4.400;2023-03-19T09:57:48;14.90;;;4.53;;
23578;SDS011;11967;50.852;4.400;2023-03-19T10:00:25;14.80;;;3.63;;
23578;SDS011;11967;50.852;4.400;2023-03-19T10:03:11;15.13;;;4.10;;
23578;SDS011;11967;50.852;4.400;2023-03-19T10:08:54;15.60;;;4.18;;
23578;SDS011;11967;50.852;4.400;2023-03-19T10:16:59;14.98;;;4.82;;
23578;SDS011;11967;50.852;4.400;2023-03-19T10:19:44;12.00;;;4.88;;
23578;SDS011;11967;50.852;4.400;2023-03-19T10:22:13;18.65;;;5.40;;
23578;SDS011;11967;50.852;4.400;2023-03-19T10:24:43;15.63;;;4.80;;
23578;SDS011;11967;50.852;4.400;2023-03-19T10:27:15;16.95;;;5.82;;
23578;SDS011;11967;50.852;4.400;2023-03-19T10:29:43;20.65;;;7.22;;
23578;SDS011;11967;50.852;4.400;2023-03-19T10:34:53;20.50;;;5.50;;
23578;SDS011;11967;50.852;4.400;2023-03-19T10:37:24;19.42;;;5.60;;
23578;SDS011;11967;50.852;4.400;2023-03-19T10:39:54;16.95;;;4.78;;
23578;SDS011;11967;50.852;4.400;2023-03-19T10:42:34;16.63;;;5.53;;
23578;SDS011;11967;50.852;4.400;2023-03-19T10:45:19;16.35;;;5.28;;
23578;SDS011;11967;50.852;4.400;2023-03-19T10:47:51;19.02;;;5.63;;
23578;SDS011;11967;50.852;4.400;2023-03-19T10:50:21;15.50;;;5.55;;
23578;SDS011;11967;50.852;4.400;2023-03-19T10:52:59;21.38;;;6.47;;
23578;SDS011;11967;50.852;4.400;2023-03-19T10:55:54;19.60;;;5.35;;
23578;SDS011;11967;50.852;4.400;2023-03-19T10:58:25;18.25;;;5.72;;
23578;SDS011;11967;50.852;4.400;2023-03-19T11:01:25;17.10;;;6.18;;
23578;SDS011;11967;50.852;4.400;2023-03-19T11:03:50;17.95;;;6.25;;
23578;SDS011;11967;50.852;4.400;2023-03-19T11:09:11;15.40;;;6.15;;
23578;SDS011;11967;50.852;4.400;2023-03-19T11:11:47;16.42;;;6.22;;
23578;SDS011;11967;50.852;4.400;2023-03-19T11:14:23;13.88;;;5.75;;
23578;SDS011;11967;50.852;4.400;2023-03-19T11:19:52;19.92;;;7.78;;
23578;SDS011;11967;50.852;4.400;2023-03-19T11:22:20;18.02;;;7.75;;
23578;SDS011;11967;50.852;4.400;2023-03-19T11:27:31;17.65;;;7.80;;
23578;SDS011;11967;50.852;4.400;2023-03-19T11:29:59;18.02;;;8.10;;
23578;SDS011;11967;50.852;4.400;2023-03-19T11:35:16;16.48;;;7.82;;
23578;SDS011;11967;50.852;4.400;2023-03-19T11:51:33;16.27;;;6.93;;
23578;SDS011;11967;50.852;4.400;2023-03-19T11:57:32;11.65;;;6.20;;
23578;SDS011;11967;50.852;4.400;2023-03-19T12:00:23;12.50;;;6.45;;
23578;SDS011;11967;50.852;4.400;2023-03-19T12:06:35;12.43;;;6.00;;
23578;SDS011;11967;50.852;4.400;2023-03-19T12:28:35;18.92;;;9.60;;
23578;SDS011;11967;50.852;4.400;2023-03-19T12:36:28;20.88;;;9.48;;
23578;SDS011;11967;50.852;4.400;2023-03-19T12:39:01;21.52;;;10.18;;
23578;SDS011;11967;50.852;4.400;2023-03-19T12:41:49;18.63;;;10.02;;
23578;SDS011;11967;50.852;4.400;2023-03-19T12:44:21;19.77;;;11.05;;
23578;SDS011;11967;50.852;4.400;2023-03-19T12:47:05;18.85;;;10.45;;
23578;SDS011;11967;50.852;4.400;2023-03-19T12:52:25;18.27;;;10.75;;
23578;SDS011;11967;50.852;4.400;2023-03-19T13:03:40;14.93;;;8.40;;
23578;SDS011;11967;50.852;4.400;2023-03-19T13:06:29;16.42;;;9.65;;
23578;SDS011;11967;50.852;4.400;2023-03-19T13:11:43;22.98;;;11.82;;
23578;SDS011;11967;50.852;4.400;2023-03-19T13:14:16;19.35;;;10.77;;
23578;SDS011;11967;50.852;4.400;2023-03-19T13:19:30;17.58;;;9.27;;
23578;SDS011;11967;50.852;4.400;2023-03-19T13:22:03;17.50;;;9.80;;
23578;SDS011;11967;50.852;4.400;2023-03-19T13:24:36;16.80;;;9.63;;
23578;SDS011;11967;50.852;4.400;2023-03-19T13:27:06;18.25;;;9.50;;
23578;SDS011;11967;50.852;4.400;2023-03-19T13:29:35;20.40;;;9.48;;
23578;SDS011;11967;50.852;4.400;2023-03-19T13:32:06;17.10;;;9.57;;
23578;SDS011;11967;50.852;4.400;2023-03-19T13:34:46;21.73;;;10.38;;
23578;SDS011;11967;50.852;4.400;2023-03-19T13:37:13;15.80;;;8.85;;
23578;SDS011;11967;50.852;4.400;2023-03-19T13:39:40;15.35;;;9.63;;
23578;SDS011;11967;50.852;4.400;2023-03-19T13:42:21;16.45;;;8.15;;
23578;SDS011;11967;50.852;4.400;2023-03-19T13:45:28;15.93;;;8.10;;
23578;SDS011;11967;50.852;4.400;2023-03-19T13:48:35;19.13;;;9.85;;
23578;SDS011;11967;50.852;4.400;2023-03-19T13:50:55;18.20;;;9.07;;
23578;SDS011;11967;50.852;4.400;2023-03-19T13:56:00;11.13;;;7.32;;
23578;SDS011;11967;50.852;4.400;2023-03-19T13:58:43;10.27;;;6.80;;
23578;SDS011;11967;50.852;4.400;2023-03-19T14:03:57;10.60;;;7.07;;
23578;SDS011;11967;50.852;4.400;2023-03-19T14:06:29;11.68;;;6.15;;
23578;SDS011;11967;50.852;4.400;2023-03-19T14:09:04;14.70;;;7.82;;
23578;SDS011;11967;50.852;4.400;2023-03-19T14:11:50;11.73;;;6.88;;
23578;SDS011;11967;50.852;4.400;2023-03-19T14:14:16;11.27;;;6.05;;
23578;SDS011;11967;50.852;4.400;2023-03-19T14:16:42;11.38;;;6.72;;
23578;SDS011;11967;50.852;4.400;2023-03-19T14:19:16;10.85;;;6.28;;
23578;SDS011;11967;50.852;4.400;2023-03-19T14:27:01;11.77;;;6.68;;
23578;SDS011;11967;50.852;4.400;2023-03-19T14:29:37;48.35;;;17.02;;
23578;SDS011;11967;50.852;4.400;2023-03-19T14:32:08;50.90;;;20.63;;
23578;SDS011;11967;50.852;4.400;2023-03-19T14:34:43;96.60;;;36.58;;
23578;SDS011;11967;50.852;4.400;2023-03-19T14:40:11;37.85;;;17.13;;
23578;SDS011;11967;50.852;4.400;2023-03-19T14:55:38;133.25;;;48.35;;
23578;SDS011;11967;50.852;4.400;2023-03-19T14:58:07;69.07;;;28.25;;
23578;SDS011;11967;50.852;4.400;2023-03-19T15:00:39;157.88;;;57.58;;
23578;SDS011;11967;50.852;4.400;2023-03-19T15:03:13;275.55;;;100.22;;
23578;SDS011;11967;50.852;4.400;2023-03-19T15:05:47;129.55;;;46.58;;
23578;SDS011;11967;50.852;4.400;2023-03-19T15:08:15;69.88;;;28.23;;
23578;SDS011;11967;50.852;4.400;2023-03-19T15:19:08;173.68;;;58.83;;
23578;SDS011;11967;50.852;4.400;2023-03-19T15:21:38;96.53;;;39.22;;
23578;SDS011;11967;50.852;4.400;2023-03-19T15:24:05;81.53;;;38.03;;
23578;SDS011;11967;50.852;4.400;2023-03-19T15:26:37;121.32;;;42.03;;
23578;SDS011;11967;50.852;4.400;2023-03-19T15:29:03;76.75;;;32.72;;
23578;SDS011;11967;50.852;4.400;2023-03-19T15:31:39;18.10;;;6.20;;
23578;SDS011;11967;50.852;4.400;2023-03-19T15:34:18;9.50;;;4.22;;
23578;SDS011;11967;50.852;4.400;2023-03-19T15:36:49;10.90;;;3.95;;
23578;SDS011;11967;50.852;4.400;2023-03-19T15:39:25;12.40;;;4.22;;
23578;SDS011;11967;50.852;4.400;2023-03-19T15:41:53;10.00;;;4.18;;
23578;SDS011;11967;50.852;4.400;2023-03-19T15:44:28;7.47;;;4.15;;
23578;SDS011;11967;50.852;4.400;2023-03-19T15:46:58;10.23;;;5.00;;
23578;SDS011;11967;50.852;4.400;2023-03-19T15:49:30;10.18;;;5.03;;
23578;SDS011;11967;50.852;4.400;2023-03-19T15:52:04;10.85;;;5.38;;
23578;SDS011;11967;50.852;4.400;2023-03-19T15:54:32;7.88;;;4.97;;
23578;SDS011;11967;50.852;4.400;2023-03-19T15:56:59;9.73;;;4.78;;
23578;SDS011;11967;50.852;4.400;2023-03-19T15:59:25;11.10;;;5.30;;
23578;SDS011;11967;50.852;4.400;2023-03-19T16:02:01;10.70;;;5.20;;
23578;SDS011;11967;50.852;4.400;2023-03-19T16:04:28;6.80;;;4.60;;
23578;SDS011;11967;50.852;4.400;2023-03-19T16:06:56;12.75;;;6.07;;
23578;SDS011;11967;50.852;4.400;2023-03-19T16:11:51;11.95;;;5.65;;
23578;SDS011;11967;50.852;4.400;2023-03-19T16:14:32;10.07;;;5.63;;
23578;SDS011;11967;50.852;4.400;2023-03-19T16:17:11;10.15;;;5.20;;
23578;SDS011;11967;50.852;4.400;2023-03-19T16:19:55;8.98;;;5.50;;
23578;SDS011;11967;50.852;4.400;2023-03-19T16:22:29;14.55;;;6.28;;
23578;SDS011;11967;50.852;4.400;2023-03-19T16:24:56;11.90;;;5.93;;
23578;SDS011;11967;50.852;4.400;2023-03-19T16:27:33;12.30;;;6.50;;
23578;SDS011;11967;50.852;4.400;2023-03-19T16:30:01;11.90;;;6.15;;
23578;SDS011;11967;50.852;4.400;2023-03-19T16:32:29;13.88;;;6.65;;
23578;SDS011;11967;50.852;4.400;2023-03-19T16:37:23;10.52;;;6.57;;
23578;SDS011;11967;50.852;4.400;2023-03-19T16:39:58;12.68;;;6.07;;
23578;SDS011;11967;50.852;4.400;2023-03-19T16:45:01;17.98;;;6.88;;
23578;SDS011;11967;50.852;4.400;2023-03-19T16:47:41;9.77;;;6.18;;
23578;SDS011;11967;50.852;4.400;2023-03-19T16:50:07;12.32;;;6.63;;
23578;SDS011;11967;50.852;4.400;2023-03-19T16:52:34;16.58;;;7.38;;
23578;SDS011;11967;50.852;4.400;2023-03-19T16:55:01;12.95;;;6.93;;
23578;SDS011;11967;50.852;4.400;2023-03-19T16:57:29;14.32;;;6.70;;
23578;SDS011;11967;50.852;4.400;2023-03-19T16:59:56;14.25;;;7.10;;
23578;SDS011;11967;50.852;4.400;2023-03-19T17:02:22;13.27;;;6.43;;
23578;SDS011;11967;50.852;4.400;2023-03-19T17:04:48;12.48;;;6.15;;
23578;SDS011;11967;50.852;4.400;2023-03-19T17:07:13;11.30;;;5.97;;